Time,TemperatureF,DewpointF,PressureIn,WindDirection,WindDirectionDegrees,WindSpeedMPH,WindSpeedGustMPH,Humidity,HourlyPrecipIn,Conditions,Clouds,dailyrainin,SoftwareType,DateUTC
2013-04-17 00:00:00,60.1,57.1,30.21,NNW,338,0.0,0.0,90,0.00,CLR,,0.00,WeatherDisplay:10.37,2013-04-17 04:00:00,
2013-04-17 00:01:00,59.9,57.0,30.21,NNW,338,0.0,0.0,90,0.00,CLR,,0.00,WeatherDisplay:10.37,2013-04-17 04:01:00,
2013-04-17 00:03:00,59.9,57.0,30.21,NNW,338,0.0,0.0,90,0.00,CLR,,0.00,WeatherDisplay:10.37,2013-04-17 04:03:00,
2013-04-17 00:08:00,59.7,56.8,30.21,NNW,338,0.0,0.0,90,0.00,CLR,,0.00,WeatherDisplay:10.37,2013-04-17 04:08:00,
2013-04-17 00:13:00,59.7,56.8,30.21,NNW,338,0.0,0.0,90,0.00,CLR,,0.00,WeatherDisplay:10.37,2013-04-17 04:13:00,
2013-04-17 00:18:00,59.5,56.6,30.21,NNW,338,0.0,0.0,90,0.00,CLR,,0.00,WeatherDisplay:10.37,2013-04-17 04:18:00,
2013-04-17 00:23:00,59.4,56.7,30.21,NNW,338,0.0,0.0,91,0.00,CLR,,0.00,WeatherDisplay:10.37,2013-04-17 04:23:00,
2013-04-17 00:28:00,59.4,56.7,30.21,NNW,338,0.0,0.0,91,0.00,CLR,,0.00,WeatherDisplay:10.37,2013-04-17 04:28:00,
2013-04-17 00:33:00,59.2,56.6,30.21,NNW,338,0.0,0.0,91,0.00,CLR,,0.00,WeatherDisplay:10.37,2013-04-17 04:33:00,
2013-04-17 00:38:00,59.0,56.7,30.21,NNW,338,0.0,0.0,92,0.00,CLR,,0.00,WeatherDisplay:10.37,2013-04-17 04:38:00,
2013-04-17 00:43:00,58.8,56.8,30.21,NNW,338,0.0,0.0,93,0.00,CLR,,0.00,WeatherDisplay:10.37,2013-04-17 04:43:00,
2013-04-17 00:48:00,58.6,56.6,30.21,NNW,338,0.0,0.0,93,0.00,CLR,,0.00,WeatherDisplay:10.37,2013-04-17 04:48:00,
2013-04-17 00:53:00,58.5,56.4,30.21,NNW,338,0.0,0.0,93,0.00,CLR,,0.00,WeatherDisplay:10.37,2013-04-17 04:53:00,
2013-04-17 00:58:00,58.5,56.4,30.21,NNW,338,0.0,0.0,93,0.00,CLR,,0.00,WeatherDisplay:10.37,2013-04-17 04:58:00,
2013-04-17 01:03:00,58.3,56.6,30.21,NNW,338,0.0,0.0,94,0.00,CLR,,0.00,WeatherDisplay:10.37,2013-04-17 05:03:00,
2013-04-17 01:08:00,58.1,56.4,30.21,NNW,338,0.0,0.0,94,0.00,CLR,,0.00,WeatherDisplay:10.37,2013-04-17 05:08:00,
2013-04-17 01:13:00,58.1,56.4,30.21,NNW,338,0.0,0.0,94,0.00,CLR,,0.00,WeatherDisplay:10.37,2013-04-17 05:13:00,
2013-04-17 01:18:00,58.1,56.4,30.21,NNW,338,0.0,0.0,94,0.00,CLR,,0.00,WeatherDisplay:10.37,2013-04-17 05:18:00,
2013-04-17 01:23:00,57.9,56.2,30.21,NNW,338,0.0,0.0,94,0.00,CLR,,0.00,WeatherDisplay:10.37,2013-04-17 05:23:00,
2013-04-17 01:28:00,57.9,56.2,30.21,NNW,338,0.0,0.0,94,0.00,CLR,,0.00,WeatherDisplay:10.37,2013-04-17 05:28:00,
2013-04-17 01:33:00,57.7,56.0,30.21,NNW,338,0.0,0.0,94,0.00,CLR,,0.00,WeatherDisplay:10.37,2013-04-17 05:33:00,
2013-04-17 01:38:00,57.9,56.5,30.21,NNW,338,0.0,0.0,95,0.00,CLR,,0.00,WeatherDisplay:10.37,2013-04-17 05:38:00,
2013-04-17 01:43:00,57.9,56.5,30.21,NNW,338,0.0,0.0,95,0.00,CLR,,0.00,WeatherDisplay:10.37,2013-04-17 05:43:00,
2013-04-17 01:48:00,57.9,56.5,30.21,NNW,338,0.0,0.0,95,0.00,CLR,,0.00,WeatherDisplay:10.37,2013-04-17 05:48:00,
2013-04-17 01:53:00,57.9,56.8,30.21,NNW,338,0.0,0.0,96,0.00,CLR,,0.00,WeatherDisplay:10.37,2013-04-17 05:53:00,
2013-04-17 01:58:00,57.9,56.8,30.21,NNW,338,0.0,0.0,96,0.00,CLR,,0.00,WeatherDisplay:10.37,2013-04-17 05:58:00,
2013-04-17 02:03:00,57.9,56.8,30.21,NNW,338,0.0,0.0,96,0.00,CLR,,0.00,WeatherDisplay:10.37,2013-04-17 06:03:00,
2013-04-17 02:08:00,57.9,56.8,30.21,NNW,338,0.0,0.0,96,0.00,CLR,,0.00,WeatherDisplay:10.37,2013-04-17 06:08:00,
2013-04-17 02:13:00,58.1,57.0,30.21,NNW,338,0.0,0.0,96,0.00,CLR,,0.00,WeatherDisplay:10.37,2013-04-17 06:13:00,
2013-04-17 02:18:00,57.9,57.1,30.21,NNW,338,0.0,0.0,97,0.00,CLR,,0.00,WeatherDisplay:10.37,2013-04-17 06:18:00,
2013-04-17 02:23:00,57.9,57.1,30.21,NNW,338,0.0,0.0,97,0.00,CLR,,0.00,WeatherDisplay:10.37,2013-04-17 06:23:00,
2013-04-17 02:28:00,57.7,56.9,30.21,NNW,338,0.0,0.0,97,0.00,CLR,,0.00,WeatherDisplay:10.37,2013-04-17 06:28:00,
2013-04-17 02:33:00,57.6,56.7,30.21,NNW,338,0.0,0.0,97,0.00,CLR,,0.00,WeatherDisplay:10.37,2013-04-17 06:33:00,
2013-04-17 02:38:00,57.4,56.2,30.21,NNW,338,0.0,0.0,96,0.00,CLR,,0.00,WeatherDisplay:10.37,2013-04-17 06:38:00,
2013-04-17 02:43:00,57.4,56.5,30.21,NNW,338,0.0,0.0,97,0.00,CLR,,0.00,WeatherDisplay:10.37,2013-04-17 06:43:00,
2013-04-17 02:48:00,57.4,56.2,30.21,NNW,338,0.0,0.0,96,0.00,CLR,,0.00,WeatherDisplay:10.37,2013-04-17 06:48:00,
2013-04-17 02:53:00,57.4,56.2,30.21,NNW,338,0.0,0.0,96,0.00,CLR,,0.00,WeatherDisplay:10.37,2013-04-17 06:53:00,
2013-04-17 02:58:00,57.4,56.2,30.18,NNW,338,0.0,0.0,96,0.00,CLR,,0.00,WeatherDisplay:10.37,2013-04-17 06:58:00,
2013-04-17 03:03:00,57.2,56.1,30.18,NNW,338,0.0,0.0,96,0.00,CLR,,0.00,WeatherDisplay:10.37,2013-04-17 07:03:00,
2013-04-17 03:08:00,57.2,56.4,30.18,NNW,338,0.0,0.0,97,0.00,CLR,,0.00,WeatherDisplay:10.37,2013-04-17 07:08:00,
2013-04-17 03:13:00,57.2,56.4,30.18,NNW,338,0.0,0.0,97,0.00,CLR,,0.00,WeatherDisplay:10.37,2013-04-17 07:13:00,
2013-04-17 03:18:00,57.2,56.4,30.18,NNW,338,0.0,0.0,97,0.00,CLR,,0.00,WeatherDisplay:10.37,2013-04-17 07:18:00,
2013-04-17 03:23:00,57.0,56.2,30.18,NNW,338,0.0,0.0,97,0.00,CLR,,0.00,WeatherDisplay:10.37,2013-04-17 07:23:00,
2013-04-17 03:28:00,57.0,56.2,30.18,NNW,338,0.0,0.0,97,0.00,CLR,,0.00,WeatherDisplay:10.37,2013-04-17 07:28:00,
2013-04-17 03:33:00,57.0,56.2,30.18,NNW,338,0.0,0.0,97,0.00,CLR,,0.00,WeatherDisplay:10.37,2013-04-17 07:33:00,
2013-04-17 03:38:00,56.8,56.0,30.18,NNW,338,0.0,0.0,97,0.00,CLR,,0.00,WeatherDisplay:10.37,2013-04-17 07:38:00,
2013-04-17 03:43:00,56.8,56.0,30.18,NNW,338,0.0,0.0,97,0.00,CLR,,0.00,WeatherDisplay:10.37,2013-04-17 07:43:00,
2013-04-17 03:48:00,56.8,56.0,30.18,NNW,338,0.0,0.0,97,0.00,CLR,,0.00,WeatherDisplay:10.37,2013-04-17 07:48:00,
2013-04-17 03:53:00,57.0,56.2,30.18,NNW,338,0.0,0.0,97,0.00,CLR,,0.00,WeatherDisplay:10.37,2013-04-17 07:53:00,
2013-04-17 03:58:00,56.8,56.3,30.18,NNW,338,0.0,0.0,98,0.00,CLR,,0.00,WeatherDisplay:10.37,2013-04-17 07:58:00,
2013-04-17 04:03:00,57.0,56.5,30.18,NNW,338,0.0,0.0,98,0.00,CLR,,0.00,WeatherDisplay:10.37,2013-04-17 08:03:00,
2013-04-17 04:08:00,57.0,56.5,30.18,NNW,338,0.0,0.0,98,0.00,CLR,,0.00,WeatherDisplay:10.37,2013-04-17 08:08:00,
2013-04-17 04:13:00,56.8,56.3,30.18,NNW,338,0.0,0.0,98,0.00,CLR,,0.00,WeatherDisplay:10.37,2013-04-17 08:13:00,
2013-04-17 04:18:00,56.8,56.3,30.18,NNW,338,0.0,0.0,98,0.00,CLR,,0.00,WeatherDisplay:10.37,2013-04-17 08:18:00,
2013-04-17 04:23:00,56.8,56.3,30.18,NNW,338,0.0,0.0,98,0.00,CLR,,0.00,WeatherDisplay:10.37,2013-04-17 08:23:00,
2013-04-17 04:28:00,56.8,56.3,30.18,NNW,338,0.0,0.0,98,0.00,CLR,,0.00,WeatherDisplay:10.37,2013-04-17 08:28:00,
2013-04-17 04:33:00,56.8,56.3,30.18,NNW,338,0.0,0.0,98,0.00,CLR,,0.00,WeatherDisplay:10.37,2013-04-17 08:33:00,
2013-04-17 04:38:00,56.8,56.3,30.18,NNW,338,0.0,0.0,98,0.00,CLR,,0.00,WeatherDisplay:10.37,2013-04-17 08:38:00,
2013-04-17 04:43:00,56.8,56.3,30.18,NNW,338,0.0,0.0,98,0.00,CLR,,0.00,WeatherDisplay:10.37,2013-04-17 08:43:00,
2013-04-17 04:48:00,56.7,56.1,30.18,NNW,338,0.0,0.0,98,0.00,CLR,,0.00,WeatherDisplay:10.37,2013-04-17 08:48:00,
2013-04-17 04:53:00,56.5,55.9,30.18,NNW,338,0.0,0.0,98,0.00,CLR,,0.00,WeatherDisplay:10.37,2013-04-17 08:53:00,
2013-04-17 04:58:00,56.3,55.7,30.18,NNW,338,0.0,0.0,98,0.00,CLR,,0.00,WeatherDisplay:10.37,2013-04-17 08:58:00,
2013-04-17 05:03:00,56.3,55.7,30.18,NNW,338,0.0,0.0,98,0.00,CLR,,0.00,WeatherDisplay:10.37,2013-04-17 09:03:00,
2013-04-17 05:08:00,56.3,55.7,30.18,NNW,338,0.0,0.0,98,0.00,CLR,,0.00,WeatherDisplay:10.37,2013-04-17 09:08:00,
2013-04-17 05:13:00,56.3,55.7,30.18,NNW,338,0.0,0.0,98,0.00,CLR,,0.00,WeatherDisplay:10.37,2013-04-17 09:13:00,
2013-04-17 05:18:00,56.3,55.7,30.18,NNW,338,0.0,0.0,98,0.00,CLR,,0.00,WeatherDisplay:10.37,2013-04-17 09:18:00,
2013-04-17 05:23:00,56.3,55.7,30.18,NNW,338,0.0,0.0,98,0.00,CLR,,0.00,WeatherDisplay:10.37,2013-04-17 09:23:00,
2013-04-17 05:28:00,56.3,55.7,30.18,NNW,338,0.0,0.0,98,0.00,CLR,,0.00,WeatherDisplay:10.37,2013-04-17 09:28:00,
2013-04-17 05:33:00,56.1,55.6,30.18,NNW,338,0.0,0.0,98,0.00,CLR,,0.00,WeatherDisplay:10.37,2013-04-17 09:33:00,
2013-04-17 05:38:00,56.1,55.6,30.18,NNW,338,0.0,0.0,98,0.00,CLR,,0.00,WeatherDisplay:10.37,2013-04-17 09:38:00,
2013-04-17 05:43:00,56.1,55.6,30.18,NNW,338,0.0,0.0,98,0.00,CLR,,0.00,WeatherDisplay:10.37,2013-04-17 09:43:00,
2013-04-17 05:48:00,56.3,55.7,30.18,NNW,338,0.0,0.0,98,0.00,CLR,,0.00,WeatherDisplay:10.37,2013-04-17 09:48:00,
2013-04-17 05:53:00,55.8,55.2,30.18,NNW,338,0.0,0.0,98,0.00,CLR,,0.00,WeatherDisplay:10.37,2013-04-17 09:53:00,
2013-04-17 05:58:00,55.8,55.2,30.18,NNW,338,0.0,0.0,98,0.00,CLR,,0.00,WeatherDisplay:10.37,2013-04-17 09:58:00,
2013-04-17 06:03:00,55.8,55.2,30.18,NNW,338,0.0,0.0,98,0.00,CLR,,0.00,WeatherDisplay:10.37,2013-04-17 10:03:00,
2013-04-17 06:08:00,55.8,55.2,30.18,NNW,338,0.0,0.0,98,0.00,CLR,,0.00,WeatherDisplay:10.37,2013-04-17 10:08:00,
2013-04-17 06:13:00,55.8,55.2,30.18,NNW,338,0.0,0.0,98,0.00,CLR,,0.00,WeatherDisplay:10.37,2013-04-17 10:13:00,
2013-04-17 06:18:00,55.6,55.0,30.18,NNW,338,0.0,0.0,98,0.00,CLR,,0.00,WeatherDisplay:10.37,2013-04-17 10:18:00,
2013-04-17 06:23:00,55.8,55.2,30.18,NNW,338,0.0,0.0,98,0.00,CLR,,0.00,WeatherDisplay:10.37,2013-04-17 10:23:00,
2013-04-17 06:28:00,55.6,55.0,30.21,NNW,338,0.0,0.0,98,0.00,CLR,,0.00,WeatherDisplay:10.37,2013-04-17 10:28:00,
2013-04-17 06:33:00,55.8,55.2,30.21,NNW,338,0.0,0.0,98,0.00,CLR,,0.00,WeatherDisplay:10.37,2013-04-17 10:33:00,
2013-04-17 06:38:00,55.8,55.2,30.21,NNW,338,0.0,0.0,98,0.00,CLR,,0.00,WeatherDisplay:10.37,2013-04-17 10:38:00,
2013-04-17 06:43:00,55.8,55.2,30.21,NNW,338,0.0,0.0,98,0.00,CLR,,0.00,WeatherDisplay:10.37,2013-04-17 10:43:00,
2013-04-17 06:48:00,55.8,55.2,30.21,NNW,338,0.0,0.0,98,0.00,CLR,,0.00,WeatherDisplay:10.37,2013-04-17 10:48:00,
2013-04-17 06:53:00,55.6,55.0,30.21,NNW,338,0.0,0.0,98,0.00,CLR,,0.00,WeatherDisplay:10.37,2013-04-17 10:53:00,
2013-04-17 06:58:00,55.6,55.0,30.21,NNW,338,0.0,0.0,98,0.00,CLR,,0.00,WeatherDisplay:10.37,2013-04-17 10:58:00,
2013-04-17 07:03:00,55.8,55.2,30.21,NNW,338,0.0,0.0,98,0.00,CLR,,0.00,WeatherDisplay:10.37,2013-04-17 11:03:00,
2013-04-17 07:08:00,55.6,55.0,30.21,NNW,338,0.0,0.0,98,0.00,CLR,,0.00,WeatherDisplay:10.37,2013-04-17 11:08:00,
2013-04-17 07:12:00,55.8,55.2,30.21,NNW,338,0.0,0.0,98,0.00,CLR,,0.00,WeatherDisplay:10.37,2013-04-17 11:12:00,
2013-04-17 07:17:00,55.8,55.2,30.21,NNW,338,0.0,0.0,98,0.00,CLR,,0.00,WeatherDisplay:10.37,2013-04-17 11:17:00,
2013-04-17 07:22:00,55.9,55.4,30.21,NNW,338,0.0,0.0,98,0.00,CLR,,0.00,WeatherDisplay:10.37,2013-04-17 11:22:00,
2013-04-17 07:27:00,56.1,55.6,30.21,NNW,338,0.0,0.0,98,0.00,CLR,,0.00,WeatherDisplay:10.37,2013-04-17 11:27:00,
2013-04-17 07:32:00,56.5,55.9,30.21,NNW,338,0.0,0.0,98,0.00,CLR,,0.00,WeatherDisplay:10.37,2013-04-17 11:32:00,
2013-04-17 07:37:00,56.8,56.3,30.21,NNW,338,0.0,0.0,98,0.00,CLR,,0.00,WeatherDisplay:10.37,2013-04-17 11:37:00,
2013-04-17 07:42:00,57.2,56.6,30.21,NNW,338,0.0,0.0,98,0.00,CLR,,0.00,WeatherDisplay:10.37,2013-04-17 11:42:00,
2013-04-17 07:47:00,57.6,57.0,30.21,NNW,338,0.0,0.0,98,0.00,CLR,,0.00,WeatherDisplay:10.37,2013-04-17 11:47:00,
2013-04-17 07:52:00,57.7,57.2,30.21,NNW,338,0.0,0.0,98,0.00,CLR,,0.00,WeatherDisplay:10.37,2013-04-17 11:52:00,
2013-04-17 07:57:00,58.1,57.5,30.21,NNW,338,0.0,0.0,98,0.00,CLR,,0.00,WeatherDisplay:10.37,2013-04-17 11:57:00,
2013-04-17 08:02:00,58.1,57.5,30.21,NNW,338,0.0,0.0,98,0.00,CLR,,0.00,WeatherDisplay:10.37,2013-04-17 12:02:00,
2013-04-17 08:07:00,58.5,57.9,30.21,NNW,338,0.0,0.0,98,0.00,CLR,,0.00,WeatherDisplay:10.37,2013-04-17 12:07:00,
2013-04-17 08:12:00,58.6,58.1,30.21,NNW,338,0.0,0.0,98,0.00,CLR,,0.00,WeatherDisplay:10.37,2013-04-17 12:12:00,
2013-04-17 08:17:00,58.8,58.3,30.21,NNW,338,0.0,0.0,98,0.00,CLR,,0.00,WeatherDisplay:10.37,2013-04-17 12:17:00,
2013-04-17 08:22:00,59.0,58.4,30.21,NNW,338,0.0,0.0,98,0.00,CLR,,0.00,WeatherDisplay:10.37,2013-04-17 12:22:00,
2013-04-17 08:27:00,59.4,58.8,30.18,NNW,338,0.0,0.0,98,0.00,CLR,,0.00,WeatherDisplay:10.37,2013-04-17 12:27:00,
2013-04-17 08:32:00,59.9,59.3,30.18,NNW,338,0.0,0.0,98,0.00,CLR,,0.00,WeatherDisplay:10.37,2013-04-17 12:32:00,
2013-04-17 08:37:00,60.4,59.9,30.18,NNW,338,0.0,0.0,98,0.00,CLR,,0.00,WeatherDisplay:10.37,2013-04-17 12:37:00,
2013-04-17 08:42:00,61.5,61.0,30.18,NNW,338,0.0,0.0,98,0.00,CLR,,0.00,WeatherDisplay:10.37,2013-04-17 12:42:00,
2013-04-17 08:47:00,61.9,61.3,30.18,NNW,338,0.0,0.0,98,0.00,CLR,,0.00,WeatherDisplay:10.37,2013-04-17 12:47:00,
2013-04-17 08:52:00,62.4,61.8,30.18,ESE,112,0.0,0.0,98,0.00,CLR,,0.00,WeatherDisplay:10.37,2013-04-17 12:52:00,
2013-04-17 08:57:00,63.1,62.6,30.18,SE,135,0.0,0.0,98,0.00,CLR,,0.00,WeatherDisplay:10.37,2013-04-17 12:57:00,
2013-04-17 09:02:00,63.7,63.1,30.18,ESE,112,0.0,0.0,98,0.00,CLR,,0.00,WeatherDisplay:10.37,2013-04-17 13:02:00,
2013-04-17 09:07:00,64.8,63.9,30.18,NNW,338,0.0,0.0,97,0.00,CLR,,0.00,WeatherDisplay:10.37,2013-04-17 13:07:00,
2013-04-17 09:12:00,65.7,64.5,30.18,NNW,338,0.0,0.0,96,0.00,CLR,,0.00,WeatherDisplay:10.37,2013-04-17 13:12:00,
2013-04-17 09:17:00,66.0,64.2,30.18,SE,135,0.0,0.0,94,0.00,CLR,,0.00,WeatherDisplay:10.37,2013-04-17 13:17:00,
2013-04-17 09:22:00,66.6,63.9,30.18,SE,135,0.0,0.0,91,0.00,CLR,,0.00,WeatherDisplay:10.37,2013-04-17 13:22:00,
2013-04-17 09:27:00,67.1,62.8,30.18,SE,135,0.0,0.0,86,0.00,CLR,,0.00,WeatherDisplay:10.37,2013-04-17 13:27:00,
2013-04-17 09:32:00,67.6,61.6,30.18,NW,315,0.0,0.0,81,0.00,CLR,,0.00,WeatherDisplay:10.37,2013-04-17 13:32:00,
2013-04-17 09:37:00,68.2,60.3,30.18,NW,315,0.0,0.0,76,0.00,CLR,,0.00,WeatherDisplay:10.37,2013-04-17 13:37:00,
2013-04-17 09:42:00,68.2,59.2,30.18,NW,315,0.0,0.0,73,0.00,CLR,,0.00,WeatherDisplay:10.37,2013-04-17 13:42:00,
2013-04-17 09:47:00,68.4,59.0,30.18,NW,315,0.0,0.0,72,0.00,CLR,,0.00,WeatherDisplay:10.37,2013-04-17 13:47:00,
2013-04-17 09:52:00,68.2,58.4,30.18,NW,315,0.0,0.0,71,0.00,CLR,,0.00,WeatherDisplay:10.37,2013-04-17 13:52:00,
2013-04-17 09:57:00,68.4,58.6,30.18,NW,315,0.0,0.0,71,0.00,CLR,,0.00,WeatherDisplay:10.37,2013-04-17 13:57:00,
2013-04-17 10:02:00,68.4,58.6,30.18,NW,315,0.0,0.0,71,0.00,CLR,,0.00,WeatherDisplay:10.37,2013-04-17 14:02:00,
2013-04-17 10:07:00,68.5,58.8,30.18,NW,315,0.0,0.0,71,0.00,CLR,,0.00,WeatherDisplay:10.37,2013-04-17 14:07:00,
2013-04-17 10:12:00,68.7,58.5,30.18,NW,315,0.0,0.0,70,0.00,CLR,,0.00,WeatherDisplay:10.37,2013-04-17 14:12:00,
2013-04-17 10:17:00,69.6,59.4,30.18,NW,315,0.0,0.0,70,0.00,CLR,,0.00,WeatherDisplay:10.37,2013-04-17 14:17:00,
2013-04-17 10:22:00,70.7,59.6,30.18,NW,315,0.0,0.0,68,0.00,CLR,,0.00,WeatherDisplay:10.37,2013-04-17 14:22:00,
2013-04-17 10:27:00,72.3,58.6,30.18,NW,315,0.0,0.0,62,0.00,CLR,,0.00,WeatherDisplay:10.37,2013-04-17 14:27:00,
2013-04-17 10:32:00,73.8,58.1,30.18,NW,315,0.0,0.0,58,0.00,CLR,,0.00,WeatherDisplay:10.37,2013-04-17 14:32:00,
2013-04-17 10:37:00,75.0,57.2,30.18,NW,315,0.0,0.0,54,0.00,CLR,,0.00,WeatherDisplay:10.37,2013-04-17 14:37:00,
2013-04-17 10:42:00,74.3,55.5,30.18,NW,315,0.0,0.0,52,0.00,CLR,,0.00,WeatherDisplay:10.37,2013-04-17 14:42:00,
2013-04-17 10:47:00,74.3,56.6,30.18,NW,315,0.0,0.0,54,0.00,CLR,,0.00,WeatherDisplay:10.37,2013-04-17 14:47:00,
2013-04-17 10:52:00,73.6,56.4,30.18,NW,315,0.0,0.0,55,0.00,CLR,,0.00,WeatherDisplay:10.37,2013-04-17 14:52:00,
2013-04-17 10:57:00,73.6,55.9,30.18,NW,315,0.0,0.0,54,0.00,CLR,,0.00,WeatherDisplay:10.37,2013-04-17 14:57:00,
2013-04-17 11:02:00,73.8,56.1,30.18,NW,315,0.0,0.0,54,0.00,CLR,,0.00,WeatherDisplay:10.37,2013-04-17 15:02:00,
2013-04-17 11:07:00,74.7,55.3,30.18,NW,315,0.0,0.0,51,0.00,CLR,,0.00,WeatherDisplay:10.37,2013-04-17 15:07:00,
2013-04-17 11:12:00,76.1,56.7,30.18,NW,315,0.0,0.0,51,0.00,CLR,,0.00,WeatherDisplay:10.37,2013-04-17 15:12:00,
2013-04-17 11:17:00,76.6,56.0,30.18,NW,315,0.0,0.0,49,0.00,CLR,,0.00,WeatherDisplay:10.37,2013-04-17 15:17:00,
2013-04-17 11:22:00,77.2,54.2,30.18,East,90,0.0,0.0,45,0.00,CLR,,0.00,WeatherDisplay:10.37,2013-04-17 15:22:00,
2013-04-17 11:27:00,78.6,54.9,30.18,NNE,22,0.0,0.0,44,0.00,CLR,,0.00,WeatherDisplay:10.37,2013-04-17 15:27:00,
2013-04-17 11:32:00,79.2,54.1,30.18,WNW,292,2.6,0.0,42,0.00,CLR,,0.00,WeatherDisplay:10.37,2013-04-17 15:32:00,
2013-04-17 11:37:00,80.1,53.6,30.18,WNW,292,3.5,0.0,40,0.00,CLR,,0.00,WeatherDisplay:10.37,2013-04-17 15:37:00,
2013-04-17 11:42:00,81.0,54.4,30.18,SSE,158,0.0,0.0,40,0.00,CLR,,0.00,WeatherDisplay:10.37,2013-04-17 15:42:00,
2013-04-17 11:47:00,80.6,53.4,30.18,SSE,158,0.0,0.0,39,0.00,CLR,,0.00,WeatherDisplay:10.37,2013-04-17 15:47:00,
2013-04-17 11:52:00,81.1,54.5,30.18,SE,135,0.0,0.0,40,0.00,CLR,,0.00,WeatherDisplay:10.37,2013-04-17 15:52:00,
2013-04-17 11:57:00,82.2,54.1,30.18,ESE,112,0.0,0.0,38,0.00,CLR,,0.00,WeatherDisplay:10.37,2013-04-17 15:57:00,
2013-04-17 12:02:00,81.0,52.2,30.18,SE,135,3.5,0.0,37,0.00,CLR,,0.00,WeatherDisplay:10.37,2013-04-17 16:02:00,
2013-04-17 12:07:00,80.6,51.9,30.18,SSE,158,0.0,0.0,37,0.00,CLR,,0.00,WeatherDisplay:10.37,2013-04-17 16:07:00,
2013-04-17 12:12:00,81.0,52.2,30.18,South,180,0.0,0.0,37,0.00,CLR,,0.00,WeatherDisplay:10.37,2013-04-17 16:12:00,
2013-04-17 12:17:00,81.7,51.4,30.18,SW,225,0.0,0.0,35,0.00,CLR,,0.00,WeatherDisplay:10.37,2013-04-17 16:17:00,
2013-04-17 12:22:00,82.9,53.2,30.18,SE,135,0.0,0.0,36,0.00,CLR,,0.00,WeatherDisplay:10.37,2013-04-17 16:22:00,
2013-04-17 12:27:00,83.3,51.2,30.15,SW,225,3.5,0.0,33,0.00,CLR,,0.00,WeatherDisplay:10.37,2013-04-17 16:27:00,
2013-04-17 12:32:00,84.2,51.1,30.15,East,90,0.0,0.0,32,0.00,CLR,,0.00,WeatherDisplay:10.37,2013-04-17 16:32:00,
2013-04-17 12:37:00,85.6,53.2,30.15,SE,135,0.0,0.0,33,0.00,CLR,,0.00,WeatherDisplay:10.37,2013-04-17 16:37:00,
2013-04-17 12:42:00,86.7,51.6,30.15,NE,45,0.0,0.0,30,0.00,CLR,,0.00,WeatherDisplay:10.37,2013-04-17 16:42:00,
2013-04-17 12:47:00,87.3,52.0,30.15,SE,135,2.3,0.0,30,0.00,CLR,,0.00,WeatherDisplay:10.37,2013-04-17 16:47:00,
2013-04-17 12:52:00,85.6,50.6,30.15,SE,135,0.0,0.0,30,0.00,CLR,,0.00,WeatherDisplay:10.37,2013-04-17 16:52:00,
2013-04-17 12:57:00,84.7,49.9,30.15,ESE,112,0.0,0.0,30,0.00,CLR,,0.00,WeatherDisplay:10.37,2013-04-17 16:57:00,
2013-04-17 13:02:00,84.0,51.0,30.15,West,270,0.0,0.0,32,0.00,CLR,,0.00,WeatherDisplay:10.37,2013-04-17 17:02:00,
2013-04-17 13:07:00,83.3,52.0,30.15,SE,135,0.0,0.0,34,0.00,CLR,,0.00,WeatherDisplay:10.37,2013-04-17 17:07:00,
2013-04-17 13:12:00,82.4,51.2,30.15,SE,135,0.0,0.0,34,0.00,CLR,,0.00,WeatherDisplay:10.37,2013-04-17 17:12:00,
2013-04-17 13:17:00,82.4,51.2,30.15,WNW,292,0.0,0.0,34,0.00,CLR,,0.00,WeatherDisplay:10.37,2013-04-17 17:17:00,
2013-04-17 13:22:00,81.9,50.7,30.15,SE,135,0.0,0.0,34,0.00,CLR,,0.00,WeatherDisplay:10.37,2013-04-17 17:22:00,
2013-04-17 13:27:00,81.5,51.2,30.15,NNW,338,0.0,0.0,35,0.00,CLR,,0.00,WeatherDisplay:10.37,2013-04-17 17:27:00,
2013-04-17 13:32:00,82.6,51.4,30.15,SE,135,2.6,0.0,34,0.00,CLR,,0.00,WeatherDisplay:10.37,2013-04-17 17:32:00,
2013-04-17 13:37:00,82.0,50.9,30.15,ESE,112,0.0,0.0,34,0.00,CLR,,0.00,WeatherDisplay:10.37,2013-04-17 17:37:00,
2013-04-17 13:42:00,82.9,52.5,30.15,NW,315,0.0,0.0,35,0.00,CLR,,0.00,WeatherDisplay:10.37,2013-04-17 17:42:00,
2013-04-17 13:47:00,83.7,51.5,30.15,SE,135,0.0,0.0,33,0.00,CLR,,0.00,WeatherDisplay:10.37,2013-04-17 17:47:00,
2013-04-17 13:52:00,84.2,52.0,30.15,ESE,112,0.0,0.0,33,0.00,CLR,,0.00,WeatherDisplay:10.37,2013-04-17 17:52:00,
2013-04-17 13:57:00,84.6,51.5,30.15,NW,315,0.0,0.0,32,0.00,CLR,,0.00,WeatherDisplay:10.37,2013-04-17 17:57:00,
2013-04-17 14:02:00,83.8,50.8,30.15,NNW,338,0.0,0.0,32,0.00,CLR,,0.00,WeatherDisplay:10.37,2013-04-17 18:02:00,
2013-04-17 14:07:00,84.6,51.5,30.15,NNW,338,0.0,0.0,32,0.00,CLR,,0.00,WeatherDisplay:10.37,2013-04-17 18:07:00,
2013-04-17 14:12:00,84.7,50.8,30.15,NNW,338,0.0,0.0,31,0.00,CLR,,0.00,WeatherDisplay:10.37,2013-04-17 18:12:00,
2013-04-17 14:17:00,83.3,51.2,30.15,WNW,292,0.0,0.0,33,0.00,CLR,,0.00,WeatherDisplay:10.37,2013-04-17 18:17:00,
2013-04-17 14:22:00,82.6,51.4,30.15,WNW,292,0.0,0.0,34,0.00,CLR,,0.00,WeatherDisplay:10.37,2013-04-17 18:22:00,
2013-04-17 14:27:00,82.8,51.5,30.15,WSW,248,0.0,0.0,34,0.00,CLR,,0.00,WeatherDisplay:10.37,2013-04-17 18:27:00,
2013-04-17 14:33:00,82.4,51.2,30.15,SE,135,0.0,0.0,34,0.00,CLR,,0.00,WeatherDisplay:10.37,2013-04-17 18:33:00,
2013-04-17 14:38:00,81.9,51.5,30.15,West,270,0.0,0.0,35,0.00,CLR,,0.00,WeatherDisplay:10.37,2013-04-17 18:38:00,
2013-04-17 14:43:00,81.0,52.2,30.15,WNW,292,0.0,0.0,37,0.00,CLR,,0.00,WeatherDisplay:10.37,2013-04-17 18:43:00,
2013-04-17 14:48:00,80.8,53.5,30.15,SW,225,0.0,0.0,39,0.00,CLR,,0.00,WeatherDisplay:10.37,2013-04-17 18:48:00,
2013-04-17 14:53:00,80.1,52.2,30.15,SE,135,0.0,0.0,38,0.00,CLR,,0.00,WeatherDisplay:10.37,2013-04-17 18:53:00,
2013-04-17 14:58:00,79.9,52.0,30.15,SSE,158,0.0,0.0,38,0.00,CLR,,0.00,WeatherDisplay:10.37,2013-04-17 18:58:00,
2013-04-17 15:03:00,79.5,54.4,30.15,SSE,158,0.0,0.0,42,0.00,CLR,,0.00,WeatherDisplay:10.37,2013-04-17 19:03:00,
2013-04-17 15:08:00,79.0,53.3,30.15,SSE,158,0.0,0.0,41,0.00,CLR,,0.00,WeatherDisplay:10.37,2013-04-17 19:08:00,
2013-04-17 15:13:00,78.1,53.8,30.15,West,270,0.0,0.0,43,0.00,CLR,,0.00,WeatherDisplay:10.37,2013-04-17 19:13:00,
2013-04-17 15:18:00,78.4,53.4,30.15,West,270,0.0,0.0,42,0.00,CLR,,0.00,WeatherDisplay:10.37,2013-04-17 19:18:00,
2013-04-17 15:23:00,78.4,52.8,30.15,ESE,112,0.0,0.0,41,0.00,CLR,,0.00,WeatherDisplay:10.37,2013-04-17 19:23:00,
2013-04-17 15:28:00,78.6,54.2,30.12,NNW,338,0.0,0.0,43,0.00,CLR,,0.00,WeatherDisplay:10.37,2013-04-17 19:28:00,
2013-04-17 15:33:00,79.3,54.3,30.12,East,90,0.0,0.0,42,0.00,CLR,,0.00,WeatherDisplay:10.37,2013-04-17 19:33:00,
2013-04-17 15:38:00,80.4,54.6,30.12,SE,135,0.0,0.0,41,0.00,CLR,,0.00,WeatherDisplay:10.37,2013-04-17 19:38:00,
2013-04-17 15:43:00,80.2,51.6,30.12,SE,135,0.0,0.0,37,0.00,CLR,,0.00,WeatherDisplay:10.37,2013-04-17 19:43:00,
2013-04-17 15:48:00,81.0,53.7,30.12,South,180,0.0,0.0,39,0.00,CLR,,0.00,WeatherDisplay:10.37,2013-04-17 19:48:00,
2013-04-17 15:53:00,81.3,52.6,30.12,WSW,248,0.0,0.0,37,0.00,CLR,,0.00,WeatherDisplay:10.37,2013-04-17 19:53:00,
2013-04-17 15:58:00,82.0,52.4,30.12,ESE,112,0.0,0.0,36,0.00,CLR,,0.00,WeatherDisplay:10.37,2013-04-17 19:58:00,
2013-04-17 16:03:00,83.5,53.7,30.12,ESE,112,0.0,0.0,36,0.00,CLR,,0.00,WeatherDisplay:10.37,2013-04-17 20:03:00,
2013-04-17 16:08:00,84.9,51.8,30.12,SE,135,0.0,0.0,32,0.00,CLR,,0.00,WeatherDisplay:10.37,2013-04-17 20:08:00,
2013-04-17 16:13:00,84.7,50.8,30.12,South,180,0.0,0.0,31,0.00,CLR,,0.00,WeatherDisplay:10.37,2013-04-17 20:13:00,
2013-04-17 16:18:00,84.9,50.9,30.12,SE,135,0.0,0.0,31,0.00,CLR,,0.00,WeatherDisplay:10.37,2013-04-17 20:18:00,
2013-04-17 16:23:00,84.6,50.6,30.12,South,180,0.0,0.0,31,0.00,CLR,,0.00,WeatherDisplay:10.37,2013-04-17 20:23:00,
2013-04-17 16:28:00,83.1,50.2,30.09,ESE,112,0.0,0.0,32,0.00,CLR,,0.00,WeatherDisplay:10.37,2013-04-17 20:28:00,
2013-04-17 16:33:00,82.8,50.7,30.09,SSE,158,0.0,0.0,33,0.00,CLR,,0.00,WeatherDisplay:10.37,2013-04-17 20:33:00,
2013-04-17 16:38:00,81.9,51.5,30.09,WNW,292,0.0,0.0,35,0.00,CLR,,0.00,WeatherDisplay:10.37,2013-04-17 20:38:00,
2013-04-17 16:43:00,81.7,51.4,30.09,SE,135,0.0,0.0,35,0.00,CLR,,0.00,WeatherDisplay:10.37,2013-04-17 20:43:00,
2013-04-17 16:48:00,81.1,49.3,30.09,SE,135,0.0,0.0,33,0.00,CLR,,0.00,WeatherDisplay:10.37,2013-04-17 20:48:00,
2013-04-17 16:53:00,81.5,51.2,30.09,SE,135,0.0,0.0,35,0.00,CLR,,0.00,WeatherDisplay:10.37,2013-04-17 20:53:00,
2013-04-17 16:58:00,81.7,50.6,30.09,South,180,0.0,0.0,34,0.00,CLR,,0.00,WeatherDisplay:10.37,2013-04-17 20:58:00,
2013-04-17 17:03:00,81.9,50.7,30.09,NW,315,0.0,0.0,34,0.00,CLR,,0.00,WeatherDisplay:10.37,2013-04-17 21:03:00,
2013-04-17 17:08:00,82.2,51.1,30.09,NW,315,0.0,0.0,34,0.00,CLR,,0.00,WeatherDisplay:10.37,2013-04-17 21:08:00,
2013-04-17 17:13:00,82.0,50.9,30.09,NW,315,0.0,0.0,34,0.00,CLR,,0.00,WeatherDisplay:10.37,2013-04-17 21:13:00,
2013-04-17 17:18:00,82.0,51.7,30.09,NW,315,0.0,0.0,35,0.00,CLR,,0.00,WeatherDisplay:10.37,2013-04-17 21:18:00,
2013-04-17 17:23:00,81.7,50.6,30.09,NW,315,0.0,0.0,34,0.00,CLR,,0.00,WeatherDisplay:10.37,2013-04-17 21:23:00,
2013-04-17 17:28:00,81.7,51.4,30.09,NW,315,0.0,0.0,35,0.00,CLR,,0.00,WeatherDisplay:10.37,2013-04-17 21:28:00,
2013-04-17 17:33:00,81.3,48.6,30.09,NW,315,0.0,0.0,32,0.00,CLR,,0.00,WeatherDisplay:10.37,2013-04-17 21:33:00,
2013-04-17 17:38:00,81.3,48.6,30.09,NW,315,0.0,0.0,32,0.00,CLR,,0.00,WeatherDisplay:10.37,2013-04-17 21:38:00,
2013-04-17 17:43:00,81.0,48.3,30.09,NW,315,0.0,0.0,32,0.00,CLR,,0.00,WeatherDisplay:10.37,2013-04-17 21:43:00,
2013-04-17 17:48:00,80.6,48.8,30.09,NW,315,0.0,0.0,33,0.00,CLR,,0.00,WeatherDisplay:10.37,2013-04-17 21:48:00,
2013-04-17 17:53:00,80.1,49.2,30.09,NW,315,0.0,0.0,34,0.00,CLR,,0.00,WeatherDisplay:10.37,2013-04-17 21:53:00,
2013-04-17 17:58:00,79.9,49.0,30.09,NW,315,0.0,0.0,34,0.00,CLR,,0.00,WeatherDisplay:10.37,2013-04-17 21:58:00,
2013-04-17 18:03:00,79.7,49.6,30.09,NW,315,0.0,0.0,35,0.00,CLR,,0.00,WeatherDisplay:10.37,2013-04-17 22:03:00,
2013-04-17 18:08:00,79.5,50.2,30.09,NW,315,0.0,0.0,36,0.00,CLR,,0.00,WeatherDisplay:10.37,2013-04-17 22:08:00,
2013-04-17 18:13:00,79.3,50.8,30.09,NW,315,0.0,0.0,37,0.00,CLR,,0.00,WeatherDisplay:10.37,2013-04-17 22:13:00,
2013-04-17 18:18:00,79.2,52.1,30.09,NW,315,0.0,0.0,39,0.00,CLR,,0.00,WeatherDisplay:10.37,2013-04-17 22:18:00,
2013-04-17 18:23:00,78.8,50.3,30.09,NW,315,0.0,0.0,37,0.00,CLR,,0.00,WeatherDisplay:10.37,2013-04-17 22:23:00,
2013-04-17 18:28:00,78.6,52.3,30.09,NW,315,0.0,0.0,40,0.00,CLR,,0.00,WeatherDisplay:10.37,2013-04-17 22:28:00,
2013-04-17 18:33:00,78.3,52.6,30.09,NW,315,0.0,0.0,41,0.00,CLR,,0.00,WeatherDisplay:10.37,2013-04-17 22:33:00,
2013-04-17 18:38:00,78.1,52.5,30.09,NW,315,0.0,0.0,41,0.00,CLR,,0.00,WeatherDisplay:10.37,2013-04-17 22:38:00,
2013-04-17 18:43:00,77.9,52.3,30.12,NW,315,0.0,0.0,41,0.00,CLR,,0.00,WeatherDisplay:10.37,2013-04-17 22:43:00,
2013-04-17 18:48:00,77.5,52.0,30.12,NW,315,0.0,0.0,41,0.00,CLR,,0.00,WeatherDisplay:10.37,2013-04-17 22:48:00,
2013-04-17 18:53:00,77.5,52.6,30.12,NW,315,0.0,0.0,42,0.00,CLR,,0.00,WeatherDisplay:10.37,2013-04-17 22:53:00,
2013-04-17 18:58:00,77.4,53.1,30.09,NW,315,0.0,0.0,43,0.00,CLR,,0.00,WeatherDisplay:10.37,2013-04-17 22:58:00,
2013-04-17 19:03:00,77.2,53.6,30.09,NW,315,0.0,0.0,44,0.00,CLR,,0.00,WeatherDisplay:10.37,2013-04-17 23:03:00,
2013-04-17 19:08:00,77.0,53.4,30.09,NW,315,0.0,0.0,44,0.00,CLR,,0.00,WeatherDisplay:10.37,2013-04-17 23:08:00,
2013-04-17 19:13:00,76.8,54.5,30.09,NW,315,0.0,0.0,46,0.00,CLR,,0.00,WeatherDisplay:10.37,2013-04-17 23:13:00,
2013-04-17 19:18:00,76.5,54.1,30.09,NW,315,0.0,0.0,46,0.00,CLR,,0.00,WeatherDisplay:10.37,2013-04-17 23:18:00,
2013-04-17 19:23:00,76.3,54.6,30.09,NW,315,0.0,0.0,47,0.00,CLR,,0.00,WeatherDisplay:10.37,2013-04-17 23:23:00,
2013-04-17 19:28:00,75.9,54.8,30.09,NW,315,0.0,0.0,48,0.00,CLR,,0.00,WeatherDisplay:10.37,2013-04-17 23:28:00,
2013-04-17 19:33:00,75.4,54.9,30.09,NW,315,0.0,0.0,49,0.00,CLR,,0.00,WeatherDisplay:10.37,2013-04-17 23:33:00,
2013-04-17 19:38:00,75.4,54.9,30.09,NW,315,0.0,0.0,49,0.00,CLR,,0.00,WeatherDisplay:10.37,2013-04-17 23:38:00,
2013-04-17 19:43:00,74.8,54.9,30.09,NW,315,0.0,0.0,50,0.00,CLR,,0.00,WeatherDisplay:10.37,2013-04-17 23:43:00,
2013-04-17 19:48:00,74.3,55.5,30.09,NW,315,0.0,0.0,52,0.00,CLR,,0.00,WeatherDisplay:10.37,2013-04-17 23:48:00,
2013-04-17 19:53:00,74.1,55.4,30.09,NW,315,0.0,0.0,52,0.00,CLR,,0.00,WeatherDisplay:10.37,2013-04-17 23:53:00,
2013-04-17 19:58:00,73.8,55.6,30.09,NW,315,0.0,0.0,53,0.00,CLR,,0.00,WeatherDisplay:10.37,2013-04-17 23:58:00,
2013-04-17 20:03:00,73.2,56.1,30.09,NW,315,0.0,0.0,55,0.00,CLR,,0.00,WeatherDisplay:10.37,2013-04-18 00:03:00,
2013-04-17 20:08:00,73.2,56.6,30.09,NW,315,0.0,0.0,56,0.00,CLR,,0.00,WeatherDisplay:10.37,2013-04-18 00:08:00,
2013-04-17 20:13:00,73.0,56.9,30.09,NW,315,0.0,0.0,57,0.00,CLR,,0.00,WeatherDisplay:10.37,2013-04-18 00:13:00,
2013-04-17 20:18:00,72.9,56.7,30.09,NW,315,0.0,0.0,57,0.00,CLR,,0.00,WeatherDisplay:10.37,2013-04-18 00:18:00,
2013-04-17 20:23:00,72.5,57.4,30.09,NW,315,0.0,0.0,59,0.00,CLR,,0.00,WeatherDisplay:10.37,2013-04-18 00:23:00,
2013-04-17 20:28:00,72.3,57.7,30.12,NW,315,0.0,0.0,60,0.00,CLR,,0.00,WeatherDisplay:10.37,2013-04-18 00:28:00,
2013-04-17 20:33:00,72.1,57.9,30.12,NW,315,0.0,0.0,61,0.00,CLR,,0.00,WeatherDisplay:10.37,2013-04-18 00:33:00,
2013-04-17 20:38:00,72.1,58.8,30.12,NW,315,0.0,0.0,63,0.00,CLR,,0.00,WeatherDisplay:10.37,2013-04-18 00:38:00,
2013-04-17 20:43:00,72.0,59.1,30.12,NW,315,0.0,0.0,64,0.00,CLR,,0.00,WeatherDisplay:10.37,2013-04-18 00:43:00,
2013-04-17 20:48:00,71.8,58.9,30.12,NW,315,0.0,0.0,64,0.00,CLR,,0.00,WeatherDisplay:10.37,2013-04-18 00:48:00,
2013-04-17 20:53:00,71.6,59.2,30.12,NW,315,0.0,0.0,65,0.00,CLR,,0.00,WeatherDisplay:10.37,2013-04-18 00:53:00,
2013-04-17 20:58:00,71.4,59.5,30.12,NW,315,0.0,0.0,66,0.00,CLR,,0.00,WeatherDisplay:10.37,2013-04-18 00:58:00,
2013-04-17 21:03:00,71.4,59.5,30.12,NW,315,0.0,0.0,66,0.00,CLR,,0.00,WeatherDisplay:10.37,2013-04-18 01:03:00,
2013-04-17 21:08:00,71.2,59.3,30.12,NW,315,0.0,0.0,66,0.00,CLR,,0.00,WeatherDisplay:10.37,2013-04-18 01:08:00,
2013-04-17 21:13:00,71.2,59.3,30.12,NW,315,0.0,0.0,66,0.00,CLR,,0.00,WeatherDisplay:10.37,2013-04-18 01:13:00,
2013-04-17 21:18:00,71.1,59.5,30.12,NW,315,0.0,0.0,67,0.00,CLR,,0.00,WeatherDisplay:10.37,2013-04-18 01:18:00,
2013-04-17 21:23:00,70.9,59.8,30.12,NW,315,0.0,0.0,68,0.00,CLR,,0.00,WeatherDisplay:10.37,2013-04-18 01:23:00,
2013-04-17 21:28:00,70.7,59.6,30.12,NW,315,0.0,0.0,68,0.00,CLR,,0.00,WeatherDisplay:10.37,2013-04-18 01:28:00,
2013-04-17 21:33:00,70.5,59.9,30.12,NW,315,0.0,0.0,69,0.00,CLR,,0.00,WeatherDisplay:10.37,2013-04-18 01:33:00,
2013-04-17 21:38:00,70.3,60.1,30.12,NW,315,0.0,0.0,70,0.00,CLR,,0.00,WeatherDisplay:10.37,2013-04-18 01:38:00,
2013-04-17 21:43:00,70.2,59.5,30.12,NW,315,0.0,0.0,69,0.00,CLR,,0.00,WeatherDisplay:10.37,2013-04-18 01:43:00,
2013-04-17 21:48:00,70.0,59.7,30.12,NW,315,0.0,0.0,70,0.00,CLR,,0.00,WeatherDisplay:10.37,2013-04-18 01:48:00,
2013-04-17 21:53:00,70.0,59.7,30.12,NW,315,0.0,0.0,70,0.00,CLR,,0.00,WeatherDisplay:10.37,2013-04-18 01:53:00,
2013-04-17 21:58:00,69.8,59.6,30.12,NW,315,0.0,0.0,70,0.00,CLR,,0.00,WeatherDisplay:10.37,2013-04-18 01:58:00,
2013-04-17 22:03:00,69.6,59.8,30.12,NW,315,0.0,0.0,71,0.00,CLR,,0.00,WeatherDisplay:10.37,2013-04-18 02:03:00,
2013-04-17 22:08:00,69.4,60.0,30.12,NW,315,0.0,0.0,72,0.00,CLR,,0.00,WeatherDisplay:10.37,2013-04-18 02:08:00,
2013-04-17 22:13:00,69.4,60.0,30.12,NW,315,0.0,0.0,72,0.00,CLR,,0.00,WeatherDisplay:10.37,2013-04-18 02:13:00,
2013-04-17 22:18:00,69.3,60.6,30.12,NW,315,0.0,0.0,74,0.00,CLR,,0.00,WeatherDisplay:10.37,2013-04-18 02:18:00,
2013-04-17 22:23:00,69.3,61.0,30.12,NW,315,0.0,0.0,75,0.00,CLR,,0.00,WeatherDisplay:10.37,2013-04-18 02:23:00,
2013-04-17 22:28:00,69.3,61.4,30.12,NW,315,0.0,0.0,76,0.00,CLR,,0.00,WeatherDisplay:10.37,2013-04-18 02:28:00,
2013-04-17 22:33:00,68.9,61.8,30.12,NW,315,0.0,0.0,78,0.00,CLR,,0.00,WeatherDisplay:10.37,2013-04-18 02:33:00,
2013-04-17 22:38:00,68.9,61.8,30.12,NW,315,0.0,0.0,78,0.00,CLR,,0.00,WeatherDisplay:10.37,2013-04-18 02:38:00,
2013-04-17 22:43:00,68.9,62.1,30.15,NW,315,0.0,0.0,79,0.00,CLR,,0.00,WeatherDisplay:10.37,2013-04-18 02:43:00,
2013-04-17 22:48:00,68.9,62.1,30.15,NW,315,0.0,0.0,79,0.00,CLR,,0.00,WeatherDisplay:10.37,2013-04-18 02:48:00,
2013-04-17 22:53:00,68.7,61.9,30.15,NW,315,0.0,0.0,79,0.00,CLR,,0.00,WeatherDisplay:10.37,2013-04-18 02:53:00,
2013-04-17 22:58:00,68.7,61.9,30.15,NW,315,0.0,0.0,79,0.00,CLR,,0.00,WeatherDisplay:10.37,2013-04-18 02:58:00,
2013-04-17 23:03:00,68.5,61.8,30.15,NW,315,0.0,0.0,79,0.00,CLR,,0.00,WeatherDisplay:10.37,2013-04-18 03:03:00,
2013-04-17 23:08:00,68.5,61.8,30.15,NW,315,0.0,0.0,79,0.00,CLR,,0.00,WeatherDisplay:10.37,2013-04-18 03:08:00,
2013-04-17 23:13:00,68.5,62.1,30.15,NW,315,0.0,0.0,80,0.00,CLR,,0.00,WeatherDisplay:10.37,2013-04-18 03:13:00,
2013-04-17 23:18:00,68.5,62.5,30.15,NW,315,0.0,0.0,81,0.00,CLR,,0.00,WeatherDisplay:10.37,2013-04-18 03:18:00,
2013-04-17 23:23:00,68.5,62.5,30.15,NW,315,0.0,0.0,81,0.00,CLR,,0.00,WeatherDisplay:10.37,2013-04-18 03:23:00,
2013-04-17 23:28:00,68.7,62.7,30.15,NW,315,2.3,0.0,81,0.00,CLR,,0.00,WeatherDisplay:10.37,2013-04-18 03:28:00,
2013-04-17 23:33:00,68.9,62.1,30.15,NW,315,0.0,0.0,79,0.00,CLR,,0.00,WeatherDisplay:10.37,2013-04-18 03:33:00,
2013-04-17 23:38:00,69.1,62.3,30.15,NW,315,0.0,0.0,79,0.00,CLR,,0.00,WeatherDisplay:10.37,2013-04-18 03:38:00,
2013-04-17 23:43:00,69.4,61.2,30.15,NW,315,0.0,0.0,75,0.00,CLR,,0.00,WeatherDisplay:10.37,2013-04-18 03:43:00,
2013-04-17 23:48:00,69.6,61.0,30.15,NW,315,0.0,0.0,74,0.00,CLR,,0.00,WeatherDisplay:10.37,2013-04-18 03:48:00,
2013-04-17 23:53:00,69.4,60.8,30.15,NW,315,0.0,0.0,74,0.00,CLR,,0.00,WeatherDisplay:10.37,2013-04-18 03:53:00,
2013-04-17 23:58:00,69.4,60.4,30.15,NW,315,0.0,0.0,73,0.00,CLR,,0.00,WeatherDisplay:10.37,2013-04-18 03:58:00,